Time;durP1;ratioP1;P1;durP2;ratioP2;P2;SDS_P1;SDS_P2;PMS_P1;PMS_P2;Temp;Humidity;BMP_temperature;BMP_pressure;BME280_temperature;BME280_humidity;BME280_pressure;Samples;Min_cycle;Max_cycle;Signal;HPM_P1;HPM_P2
2020/12/07 00:02:06;;;;;;;29.35;15.25;;;;;;;2.81;80.78;99138.08;2162100;80;21187;-79
2020/12/07 00:05:07;;;;;;;29.05;16.35;;;;;;;2.80;80.76;99133.81;2160019;80;21614;-79
2020/12/07 00:08:10;;;;;;;29.87;15.60;;;;;;;2.78;80.79;99118.72;2162447;80;21126;-78
2020/12/07 00:11:13;;;;;;;30.43;16.67;;;;;;;2.76;80.86;99129.81;2156443;80;21236;-80
2020/12/07 00:14:15;;;;;;;37.83;18.82;;;;;;;2.71;80.69;99114.53;2160608;80;21154;-80
2020/12/07 00:17:26;;;;;;;35.75;19.60;;;;;;;2.69;80.76;99115.97;2161068;80;21495;-79
2020/12/07 00:20:28;;;;;;;25.20;14.38;;;;;;;2.66;80.77;99121.98;2163337;80;21103;-79
2020/12/07 00:23:29;;;;;;;31.95;18.15;;;;;;;2.62;80.91;99124.06;2156069;80;21516;-79
2020/12/07 00:26:30;;;;;;;31.10;16.10;;;;;;;2.59;81.07;99125.66;2157073;80;21095;-78
2020/12/07 00:29:32;;;;;;;30.00;17.25;;;;;;;2.56;81.12;99122.02;2163700;80;21197;-79
2020/12/07 00:32:34;;;;;;;31.30;18.32;;;;;;;2.54;81.20;99129.17;2159127;81;21677;-79
2020/12/07 00:35:36;;;;;;;33.92;17.80;;;;;;;2.51;81.06;99124.22;2162783;80;21164;-78
2020/12/07 00:38:37;;;;;;;31.77;19.07;;;;;;;2.49;81.08;99113.05;2163716;80;21517;-80
2020/12/07 00:41:38;;;;;;;31.60;17.92;;;;;;;2.48;81.01;99117.95;2161066;80;21488;-80
2020/12/07 00:44:42;;;;;;;32.05;18.60;;;;;;;2.47;81.21;99117.09;2161454;80;21212;-80
2020/12/07 00:47:43;;;;;;;33.70;17.50;;;;;;;2.51;81.15;99117.67;2162558;81;21105;-79
2020/12/07 00:50:45;;;;;;;28.95;16.40;;;;;;;2.51;81.24;99111.13;2159714;80;21109;-79
2020/12/07 00:53:46;;;;;;;25.65;13.35;;;;;;;2.50;81.19;99112.07;2160928;80;21143;-79
2020/12/07 00:56:55;;;;;;;27.22;16.95;;;;;;;2.49;81.42;99106.98;2165911;80;21125;-79
2020/12/07 00:59:58;;;;;;;30.65;16.27;;;;;;;2.48;81.35;99103.55;2159938;80;21180;-79
2020/12/07 01:03:00;;;;;;;31.70;17.98;;;;;;;2.45;81.37;99091.56;2164318;80;21110;-79
2020/12/07 01:06:01;;;;;;;27.95;17.62;;;;;;;2.44;81.46;99094.30;2167860;80;21125;-78
2020/12/07 01:09:04;;;;;;;30.45;15.65;;;;;;;2.42;81.63;99095.77;2158371;80;21122;-80
2020/12/07 01:12:07;;;;;;;31.87;18.02;;;;;;;2.41;81.70;99094.09;2163819;80;21160;-79
2020/12/07 01:15:19;;;;;;;32.75;17.77;;;;;;;2.40;81.77;99083.78;2162815;80;21124;-79
2020/12/07 01:18:21;;;;;;;29.35;16.50;;;;;;;2.39;81.66;99092.13;2167209;80;21672;-79
2020/12/07 01:21:23;;;;;;;28.07;16.25;;;;;;;2.37;81.74;99082.75;2160882;80;21123;-80
2020/12/07 01:24:24;;;;;;;31.17;16.93;;;;;;;2.37;81.88;99083.58;2160319;80;21076;-78
2020/12/07 01:27:27;;;;;;;27.15;16.95;;;;;;;2.36;81.99;99085.83;2157053;81;21185;-79
2020/12/07 01:30:29;;;;;;;26.27;15.55;;;;;;;2.36;81.95;99091.55;2159996;80;21169;-78
2020/12/07 01:33:31;;;;;;;28.90;15.08;;;;;;;2.34;82.13;99109.22;2165324;80;21119;-79
2020/12/07 01:36:33;;;;;;;28.12;16.05;;;;;;;2.31;81.97;99094.61;2133333;82;21168;-80
2020/12/07 01:39:34;;;;;;;28.47;15.85;;;;;;;2.29;82.12;99090.47;2166406;81;21084;-80
2020/12/07 01:42:37;;;;;;;31.73;18.45;;;;;;;2.23;82.02;99088.75;2153504;80;21592;-78
2020/12/07 01:45:38;;;;;;;25.90;15.35;;;;;;;2.19;82.25;99095.70;2151192;81;21130;-80
2020/12/07 01:48:40;;;;;;;31.37;17.80;;;;;;;2.14;82.42;99085.66;2145971;80;21211;-81
2020/12/07 01:51:44;;;;;;;33.30;16.67;;;;;;;2.09;82.24;99068.23;2133426;81;21146;-79
2020/12/07 01:54:48;;;;;;;28.87;15.10;;;;;;;2.08;82.61;99073.10;2154076;80;21235;-80
2020/12/07 01:57:49;;;;;;;24.18;14.98;;;;;;;2.09;82.74;99071.34;2145915;81;21117;-79
2020/12/07 02:00:51;;;;;;;28.95;17.00;;;;;;;2.07;82.92;99065.41;2151998;81;21505;-81
2020/12/07 02:03:54;;;;;;;27.27;15.15;;;;;;;2.07;82.95;99069.33;2142876;81;21477;-79
2020/12/07 02:06:56;;;;;;;26.17;16.12;;;;;;;2.04;83.00;99075.66;2154146;81;21208;-79
2020/12/07 02:09:58;;;;;;;26.07;14.70;;;;;;;2.06;83.00;99057.23;2152584;81;21145;-78
2020/12/07 02:13:00;;;;;;;29.75;17.70;;;;;;;2.03;82.92;99074.02;2147075;81;21218;-80
2020/12/07 02:16:01;;;;;;;28.77;16.45;;;;;;;2.01;82.93;99062.86;2153561;80;21585;-79
2020/12/07 02:19:05;;;;;;;28.32;14.50;;;;;;;2.00;83.14;99082.97;2150526;81;21098;-79
2020/12/07 02:22:11;;;;;;;21.25;13.45;;;;;;;2.00;83.03;99094.75;2152927;81;21150;-79
2020/12/07 02:25:20;;;;;;;31.37;17.00;;;;;;;1.98;83.26;99073.12;2149944;81;21150;-80
2020/12/07 02:28:22;;;;;;;27.77;15.45;;;;;;;1.99;83.25;99082.61;2151948;81;21632;-80
2020/12/07 02:31:24;;;;;;;29.30;16.70;;;;;;;1.99;83.22;99086.53;2147551;81;21114;-79
2020/12/07 02:34:25;;;;;;;28.95;15.58;;;;;;;1.98;83.26;99086.69;2127145;81;22725;-78
2020/12/07 02:37:27;;;;;;;23.92;14.65;;;;;;;1.95;83.36;99073.88;2153941;81;21165;-79
2020/12/07 02:40:30;;;;;;;29.85;18.27;;;;;;;1.95;83.35;99056.87;2149432;81;21083;-79
2020/12/07 02:43:33;;;;;;;23.95;14.25;;;;;;;1.93;83.39;99053.56;2150463;81;21231;-79
2020/12/07 02:46:36;;;;;;;28.87;16.02;;;;;;;1.88;83.31;99054.45;2150720;81;21122;-80
2020/12/07 02:49:39;;;;;;;30.72;16.60;;;;;;;1.86;83.45;99058.98;2153657;81;21516;-79
2020/12/07 02:52:41;;;;;;;26.25;16.70;;;;;;;1.86;83.60;99064.22;2151733;81;21120;-79
2020/12/07 02:55:43;;;;;;;28.87;17.05;;;;;;;1.86;83.51;99057.67;2151239;82;21937;-79
2020/12/07 02:58:44;;;;;;;27.05;15.45;;;;;;;1.88;83.56;99073.58;2149937;81;21098;-79
2020/12/07 03:01:46;;;;;;;27.90;15.85;;;;;;;1.90;83.58;99069.53;2153206;81;21508;-79
2020/12/07 03:04:48;;;;;;;25.27;14.05;;;;;;;1.90;83.55;99069.53;2128777;81;21115;-78
2020/12/07 03:07:50;;;;;;;28.20;17.50;;;;;;;1.87;83.50;99066.70;2152585;81;21574;-79
2020/12/07 03:10:53;;;;;;;27.52;16.10;;;;;;;1.88;83.53;99057.89;2150863;81;21726;-80
2020/12/07 03:13:56;;;;;;;27.87;16.52;;;;;;;1.88;83.54;99054.45;2156379;81;21163;-80
2020/12/07 03:16:58;;;;;;;26.75;16.02;;;;;;;1.85;83.53;99050.31;2153722;80;21528;-79
2020/12/07 03:20:00;;;;;;;24.52;15.83;;;;;;;1.86;83.48;99060.29;2151030;81;21145;-78
2020/12/07 03:23:02;;;;;;;28.85;14.80;;;;;;;1.86;83.58;99054.60;2153440;80;21538;-79
2020/12/07 03:26:04;;;;;;;25.95;15.55;;;;;;;1.90;83.59;99055.14;2149737;81;21172;-80
2020/12/07 03:29:06;;;;;;;26.50;14.68;;;;;;;1.90;83.47;99069.05;2152077;81;21201;-79
2020/12/07 03:32:09;;;;;;;24.80;15.55;;;;;;;1.90;83.59;99072.15;2147962;81;21146;-79
2020/12/07 03:35:12;;;;;;;24.25;14.93;;;;;;;1.91;83.52;99073.79;2154934;81;21494;-80
2020/12/07 03:38:15;;;;;;;24.23;14.83;;;;;;;1.89;83.43;99067.89;2151887;80;21143;-78
2020/12/07 03:41:18;;;;;;;23.90;14.05;;;;;;;1.88;83.48;99062.30;2127150;81;21534;-80
2020/12/07 03:44:22;;;;;;;26.57;15.50;;;;;;;1.87;83.54;99064.58;2155260;81;21206;-79
2020/12/07 03:47:23;;;;;;;23.98;14.47;;;;;;;1.85;83.41;99059.47;2151037;81;21151;-80
2020/12/07 03:50:25;;;;;;;27.32;15.93;;;;;;;1.82;83.34;99051.90;2128453;82;21130;-80
2020/12/07 03:53:30;;;;;;;24.63;14.45;;;;;;;1.78;83.37;99065.73;2150433;80;21129;-79
2020/12/07 03:56:32;;;;;;;25.27;14.93;;;;;;;1.78;83.38;99057.07;2150930;81;21159;-80
2020/12/07 03:59:34;;;;;;;25.60;14.47;;;;;;;1.76;83.43;99072.89;2148301;81;21111;-80
2020/12/07 04:02:37;;;;;;;23.73;15.45;;;;;;;1.77;83.36;99059.32;2153698;81;21134;-80
2020/12/07 04:05:40;;;;;;;21.50;13.70;;;;;;;1.76;83.42;99053.76;2154708;81;21149;-81
2020/12/07 04:08:43;;;;;;;25.90;16.02;;;;;;;1.76;83.32;99056.37;2151560;81;21177;-80
2020/12/07 04:11:45;;;;;;;26.33;16.12;;;;;;;1.73;83.30;99041.78;2149095;81;21118;-80
2020/12/07 04:14:46;;;;;;;24.07;14.43;;;;;;;1.72;83.27;99055.83;2153156;81;21516;-79
2020/12/07 04:17:47;;;;;;;28.35;15.43;;;;;;;1.72;83.37;99055.01;2148626;81;21174;-79
2020/12/07 04:20:49;;;;;;;23.55;14.47;;;;;;;1.70;83.31;99051.20;2154896;81;21107;-79
2020/12/07 04:23:50;;;;;;;28.02;15.50;;;;;;;1.68;83.41;99039.23;2148839;81;21144;-79
2020/12/07 04:26:52;;;;;;;23.02;14.45;;;;;;;1.67;83.50;99052.79;2151254;81;21107;-79
2020/12/07 04:29:53;;;;;;;23.65;14.18;;;;;;;1.68;83.39;99043.97;2150365;81;21167;-79
2020/12/07 04:32:55;;;;;;;27.00;13.55;;;;;;;1.66;83.43;99040.69;2149113;81;21102;-79
2020/12/07 04:35:56;;;;;;;26.45;14.20;;;;;;;1.65;83.52;99046.86;2154363;81;21108;-79
2020/12/07 04:38:57;;;;;;;18.87;12.45;;;;;;;1.63;83.55;99051.39;2150602;81;21163;-78
2020/12/07 04:41:59;;;;;;;28.35;14.58;;;;;;;1.63;83.60;99050.08;2150847;81;21059;-79
2020/12/07 04:45:01;;;;;;;24.80;14.23;;;;;;;1.60;83.54;99056.07;2153565;80;21109;-79
2020/12/07 04:48:03;;;;;;;24.37;12.98;;;;;;;1.56;83.38;99040.66;2148776;80;21127;-79
2020/12/07 04:51:04;;;;;;;23.90;11.48;;;;;;;1.55;83.49;99052.09;2156340;80;21144;-79
2020/12/07 04:54:07;;;;;;;23.57;13.80;;;;;;;1.53;83.55;99042.23;2153961;81;21546;-79
2020/12/07 04:57:10;;;;;;;23.15;13.62;;;;;;;1.51;83.53;99027.16;2152291;81;21122;-78
2020/12/07 05:00:12;;;;;;;24.55;14.50;;;;;;;1.50;83.59;99010.31;2151530;81;21508;-80
2020/12/07 05:03:13;;;;;;;24.23;13.98;;;;;;;1.52;83.55;99026.67;2144528;81;21634;-80
2020/12/07 05:06:18;;;;;;;20.45;12.10;;;;;;;1.52;83.66;99034.06;2151911;81;21102;-80
2020/12/07 05:09:20;;;;;;;19.48;12.07;;;;;;;1.53;83.60;99033.09;2153763;80;21119;-78
2020/12/07 05:12:25;;;;;;;21.48;11.08;;;;;;;1.53;83.58;99023.12;2147781;81;21152;-80
2020/12/07 05:15:25;;;;;;;20.25;13.35;;;;;;;1.51;83.56;98995.79;2153829;80;21155;-79
2020/12/07 05:18:27;;;;;;;24.63;14.05;;;;;;;1.51;83.57;99021.93;2154214;80;21142;-79
2020/12/07 05:21:28;;;;;;;21.50;12.80;;;;;;;1.52;83.65;99031.91;2150932;81;21134;-80
2020/12/07 05:24:30;;;;;;;26.73;14.38;;;;;;;1.53;83.61;99013.97;2150594;81;21118;-79
2020/12/07 05:27:33;;;;;;;25.55;12.80;;;;;;;1.54;83.64;99025.58;2152352;80;21699;-78
2020/12/07 05:30:44;;;;;;;24.00;13.83;;;;;;;1.54;83.67;99011.69;2153275;81;21574;-79
2020/12/07 05:33:50;;;;;;;24.77;12.95;;;;;;;1.53;83.65;99012.17;2150960;81;21161;-80
2020/12/07 05:36:56;;;;;;;26.48;14.30;;;;;;;1.54;83.71;99018.22;2150815;80;21550;-78
2020/12/07 05:40:13;;;;;;;21.48;13.20;;;;;;;1.54;83.64;99019.05;2154182;81;21110;-79
2020/12/07 05:43:17;;;;;;;22.25;12.45;;;;;;;1.57;83.63;99032.33;2153066;81;21153;-80
2020/12/07 05:46:24;;;;;;;20.57;13.15;;;;;;;1.60;83.55;99033.36;2149549;81;21576;-80
2020/12/07 05:49:27;;;;;;;26.87;13.85;;;;;;;1.62;83.47;99038.47;2152881;81;21603;-80
2020/12/07 05:52:50;;;;;;;21.93;13.18;;;;;;;1.66;83.46;99047.68;2147452;81;21126;-80
2020/12/07 05:55:54;;;;;;;21.57;12.95;;;;;;;1.68;83.36;99043.97;2147748;81;21143;-80
2020/12/07 05:59:15;;;;;;;18.90;12.15;;;;;;;1.70;83.29;99052.52;2149853;81;21124;-79
2020/12/07 06:02:17;;;;;;;21.25;12.75;;;;;;;1.71;83.20;99050.23;2149502;81;21133;-79
2020/12/07 06:05:23;;;;;;;21.95;13.48;;;;;;;1.72;83.15;99055.83;2149731;81;21208;-79
2020/12/07 06:08:34;;;;;;;19.75;10.63;;;;;;;1.75;83.11;99050.33;2147320;80;21154;-80
2020/12/07 06:11:52;;;;;;;20.00;12.07;;;;;;;1.76;83.00;99053.27;2129893;81;21139;-81
2020/12/07 06:14:54;;;;;;;23.50;15.20;;;;;;;1.76;82.94;99054.58;2149105;81;21123;-80
2020/12/07 06:17:55;;;;;;;23.12;13.90;;;;;;;1.78;82.89;99057.07;2151896;81;21191;-81
2020/12/07 06:21:04;;;;;;;21.48;12.73;;;;;;;1.80;82.86;99064.28;2149368;81;21591;-78
2020/12/07 06:24:05;;;;;;;26.00;12.75;;;;;;;1.82;82.85;99066.77;2147083;80;21201;-78
2020/12/07 06:27:11;;;;;;;21.10;12.93;;;;;;;1.83;82.76;99061.88;2149193;81;21375;-80
2020/12/07 06:30:12;;;;;;;21.40;13.43;;;;;;;1.85;82.78;99086.94;2146779;80;21119;-78
2020/12/07 06:33:14;;;;;;;20.40;13.32;;;;;;;1.90;82.75;99086.54;2151380;80;21106;-79
2020/12/07 06:36:33;;;;;;;18.62;10.85;;;;;;;1.93;82.69;99086.27;2148829;80;21161;-79
2020/12/07 06:39:43;;;;;;;20.02;12.40;;;;;;;1.97;82.69;99092.41;2149734;81;21145;-78
2020/12/07 06:42:47;;;;;;;22.70;10.53;;;;;;;2.02;82.69;99092.80;2141190;81;21151;-78
2020/12/07 06:45:49;;;;;;;19.15;11.10;;;;;;;2.09;82.62;99098.81;2100635;82;21222;-78
2020/12/07 06:48:50;;;;;;;19.80;11.80;;;;;;;2.16;82.59;99095.97;2107369;82;21174;-80
2020/12/07 06:52:01;;;;;;;17.60;11.80;;;;;;;2.24;82.47;99093.50;2094352;82;21162;-78
2020/12/07 06:55:11;;;;;;;21.97;13.48;;;;;;;2.27;82.32;99098.94;2101790;83;21177;-80
2020/12/07 06:58:29;;;;;;;22.22;13.72;;;;;;;2.31;82.17;99100.30;2099419;82;21148;-77
2020/12/07 07:01:30;;;;;;;19.62;12.65;;;;;;;2.29;82.06;99104.88;2107826;82;21114;-79
2020/12/07 07:04:32;;;;;;;21.85;13.70;;;;;;;2.26;81.93;99105.97;2080753;83;21121;-80
2020/12/07 07:07:34;;;;;;;18.80;11.93;;;;;;;2.22;81.90;99098.03;2100561;83;21143;-79
2020/12/07 07:10:37;;;;;;;23.95;12.68;;;;;;;2.19;81.95;99110.91;2104721;82;21642;-80
2020/12/07 07:13:41;;;;;;;21.12;13.00;;;;;;;2.16;81.95;99101.21;2095790;82;21138;-79
2020/12/07 07:16:43;;;;;;;18.40;11.50;;;;;;;2.14;82.05;99113.14;2102310;82;21153;-81
2020/12/07 07:19:44;;;;;;;22.35;12.43;;;;;;;2.15;82.07;99097.77;2104987;83;21224;-78
2020/12/07 07:22:48;;;;;;;23.55;14.63;;;;;;;2.15;82.07;99103.00;2100844;83;21176;-78
2020/12/07 07:25:54;;;;;;;21.52;12.68;;;;;;;2.17;82.08;99119.41;2098107;82;21647;-81
2020/12/07 07:28:53;;;;;;;24.12;14.38;;;;;;;2.17;82.04;99106.32;2099621;83;21342;-80
2020/12/07 07:31:56;;;;;;;22.20;13.32;;;;;;;2.21;82.01;99109.48;2096498;83;21071;-80
2020/12/07 07:34:58;;;;;;;19.60;12.20;;;;;;;2.23;81.95;99116.23;2107080;83;21582;-78
2020/12/07 07:38:00;;;;;;;22.67;11.73;;;;;;;2.28;81.91;99118.91;2096908;83;21140;-78
2020/12/07 07:41:01;;;;;;;22.40;13.80;;;;;;;2.31;81.91;99123.86;2073169;83;21606;-79
2020/12/07 07:44:03;;;;;;;25.02;14.15;;;;;;;2.36;81.88;99129.52;2112320;82;21157;-79
2020/12/07 07:47:09;;;;;;;27.50;15.08;;;;;;;2.41;81.85;99130.75;2126999;82;21103;-79
2020/12/07 07:50:32;;;;;;;21.70;12.43;;;;;;;2.47;81.75;99145.08;2123555;82;21198;-77
2020/12/07 08:16:28;;;;;;;25.60;13.98;;;;;;;2.64;81.37;99156.65;2122590;82;21187;-79
2020/12/07 08:19:30;;;;;;;29.82;15.25;;;;;;;2.67;81.25;99157.19;2100894;82;21061;-80
2020/12/07 08:22:32;;;;;;;24.32;13.60;;;;;;;2.70;81.20;99139.06;2124051;82;21184;-77
2020/12/07 08:25:51;;;;;;;28.27;15.98;;;;;;;2.69;81.14;99148.72;2124800;82;21341;-77
2020/12/07 08:28:53;;;;;;;28.15;15.13;;;;;;;2.72;81.10;99146.79;2099882;83;21087;-78
2020/12/07 08:31:55;;;;;;;25.02;14.47;;;;;;;2.72;81.07;99150.72;2124178;82;21107;-79
2020/12/07 08:34:56;;;;;;;24.60;14.15;;;;;;;2.75;81.08;99136.03;2121919;82;21568;-78
2020/12/07 08:37:58;;;;;;;22.07;12.73;;;;;;;2.77;81.02;99140.66;2123714;82;21185;-77
2020/12/07 08:41:21;;;;;;;22.98;13.58;;;;;;;2.81;80.93;99144.62;2122960;82;21177;-80
2020/12/07 08:44:23;;;;;;;23.05;14.07;;;;;;;2.86;80.92;99136.69;2136237;81;21229;-78
2020/12/07 08:47:24;;;;;;;23.60;14.05;;;;;;;2.92;80.75;99140.54;2155826;81;21127;-79
2020/12/07 08:50:25;;;;;;;22.17;13.00;;;;;;;3.03;80.69;99137.75;2156343;81;21166;-78
2020/12/07 08:53:27;;;;;;;19.85;11.65;;;;;;;3.08;80.31;99152.57;2152110;81;21196;-78
2020/12/07 08:56:29;;;;;;;19.45;11.63;;;;;;;3.07;80.30;99143.06;2153085;81;21122;-78
2020/12/07 08:59:30;;;;;;;22.62;12.78;;;;;;;3.08;80.27;99140.78;2132426;81;21142;-78
2020/12/07 09:02:31;;;;;;;27.75;15.32;;;;;;;3.10;80.17;99152.44;2156973;81;21547;-76
2020/12/07 09:05:34;;;;;;;23.87;12.80;;;;;;;3.08;80.17;99165.67;2149233;81;21114;-78
2020/12/07 09:08:37;;;;;;;31.12;15.90;;;;;;;3.10;80.19;99174.72;2154522;81;21105;-80
2020/12/07 09:11:39;;;;;;;30.32;15.38;;;;;;;3.12;80.15;99180.14;2152918;81;21125;-81
2020/12/07 09:14:40;;;;;;;28.15;16.42;;;;;;;3.20;80.15;99193.03;2128513;81;21200;-77
2020/12/07 09:17:43;;;;;;;30.48;14.38;;;;;;;3.23;80.11;99187.02;2149456;81;21145;-80
2020/12/07 09:20:45;;;;;;;25.02;14.93;;;;;;;3.27;80.03;99186.27;2112141;81;21661;-79
2020/12/07 09:23:47;;;;;;;24.70;13.90;;;;;;;3.29;79.90;99175.12;2132597;81;21173;-78
2020/12/07 09:26:48;;;;;;;22.48;13.60;;;;;;;3.31;80.05;99171.39;2156165;81;21105;-79
2020/12/07 09:29:50;;;;;;;22.58;11.68;;;;;;;3.35;80.12;99157.51;2148851;80;21188;-81
2020/12/07 09:32:51;;;;;;;25.05;11.65;;;;;;;3.41;79.97;99158.27;2149269;81;21128;-78
2020/12/07 09:35:53;;;;;;;25.43;13.93;;;;;;;3.46;79.89;99159.95;2149159;81;21076;-78
2020/12/07 09:38:54;;;;;;;23.22;11.60;;;;;;;3.54;80.02;99152.18;2152111;81;21141;-78
2020/12/07 09:41:57;;;;;;;18.35;11.22;;;;;;;3.57;79.75;99158.45;2152796;81;21075;-76
2020/12/07 09:45:00;;;;;;;28.52;13.90;;;;;;;3.65;79.88;99164.78;2153263;81;21239;-77
2020/12/07 09:48:02;;;;;;;24.98;14.05;;;;;;;3.70;79.60;99147.63;2156790;80;21866;-77
2020/12/07 09:51:04;;;;;;;26.00;13.83;;;;;;;3.74;79.56;99156.02;2145948;80;21099;-80
2020/12/07 09:54:05;;;;;;;21.05;11.90;;;;;;;3.81;79.43;99158.41;2156199;81;21158;-80
2020/12/07 09:57:07;;;;;;;21.33;12.68;;;;;;;3.88;79.43;99156.02;2150621;80;21164;-78
2020/12/07 10:00:09;;;;;;;24.55;13.48;;;;;;;3.92;79.58;99156.90;2133175;81;21634;-77
2020/12/07 10:03:14;;;;;;;24.92;14.00;;;;;;;4.01;79.28;99155.19;2162322;80;21165;-78
2020/12/07 10:06:18;;;;;;;20.92;11.00;;;;;;;4.08;79.47;99153.60;2131448;81;21610;-77
2020/12/07 10:09:21;;;;;;;22.93;13.50;;;;;;;4.12;79.16;99154.97;2151028;81;22488;-80
2020/12/07 10:12:23;;;;;;;28.80;16.45;;;;;;;4.19;79.33;99159.12;2154560;80;21154;-77
2020/12/07 10:15:24;;;;;;;22.95;13.35;;;;;;;4.23;79.14;99154.75;2146176;81;21074;-77
2020/12/07 10:18:26;;;;;;;23.27;14.13;;;;;;;4.25;79.08;99154.59;2127612;81;21138;-77
2020/12/07 10:21:28;;;;;;;40.10;22.85;;;;;;;4.27;79.09;99146.90;2150654;81;21608;-78
2020/12/07 10:24:29;;;;;;;31.27;15.90;;;;;;;4.32;78.83;99149.09;2153717;81;21149;-78
2020/12/07 10:27:30;;;;;;;33.05;18.45;;;;;;;4.35;78.79;99155.84;2153583;80;21123;-78
2020/12/07 10:30:32;;;;;;;32.70;15.30;;;;;;;4.39;78.82;99153.23;2152566;81;21571;-79
2020/12/07 10:33:33;;;;;;;25.35;13.40;;;;;;;4.40;78.31;99135.20;2154450;81;21132;-80
2020/12/07 10:36:35;;;;;;;27.20;14.93;;;;;;;4.39;78.29;99146.21;2156401;81;21115;-79
2020/12/07 10:39:37;;;;;;;32.35;16.17;;;;;;;4.39;78.48;99145.36;2154428;81;21106;-77
2020/12/07 10:42:38;;;;;;;33.15;17.25;;;;;;;4.42;78.45;99147.22;2153648;81;21652;-78
2020/12/07 10:45:39;;;;;;;30.57;14.00;;;;;;;4.47;78.56;99148.88;2154821;80;21142;-79
2020/12/07 10:48:41;;;;;;;25.00;13.00;;;;;;;4.54;78.49;99160.13;2151184;81;21137;-78
2020/12/07 10:51:47;;;;;;;25.55;13.98;;;;;;;4.60;78.27;99155.56;2126628;81;21174;-79
2020/12/07 10:54:49;;;;;;;28.60;14.20;;;;;;;4.66;78.38;99150.52;2153194;81;21364;-75
2020/12/07 10:57:51;;;;;;;25.12;12.85;;;;;;;4.74;78.14;99155.52;2156698;81;21104;-77
2020/12/07 11:00:54;;;;;;;24.15;13.93;;;;;;;4.78;78.02;99149.78;2155322;81;21559;-79
2020/12/07 11:03:56;;;;;;;28.40;14.87;;;;;;;4.83;77.98;99146.21;2158543;81;21091;-79
2020/12/07 11:06:59;;;;;;;26.00;14.35;;;;;;;4.87;78.01;99143.62;2157033;81;21092;-76
2020/12/07 11:10:00;;;;;;;24.10;13.35;;;;;;;4.96;78.17;99148.95;2156261;81;21159;-77
2020/12/07 11:13:07;;;;;;;21.55;11.93;;;;;;;5.03;77.88;99153.91;2155391;81;21110;-77
2020/12/07 11:16:05;;;;;;;22.05;12.98;;;;;;;5.08;77.86;99148.52;2154231;81;21144;-79
2020/12/07 11:19:07;;;;;;;21.90;11.75;;;;;;;5.13;77.93;99145.43;2134662;81;21518;-76
2020/12/07 11:22:08;;;;;;;16.97;10.53;;;;;;;5.22;77.81;99143.17;2131818;82;21518;-78
2020/12/07 11:25:10;;;;;;;15.72;9.75;;;;;;;5.34;77.70;99145.86;2153915;81;21107;-80
2020/12/07 11:28:11;;;;;;;22.90;9.60;;;;;;;5.51;77.36;99142.81;2154361;81;21089;-76
2020/12/07 11:31:15;;;;;;;14.15;8.98;;;;;;;5.69;76.15;99154.58;2155720;81;21150;-77
2020/12/07 11:34:20;;;;;;;16.05;10.18;;;;;;;5.87;75.72;99137.84;2152404;81;21204;-78
2020/12/07 11:37:20;;;;;;;15.13;9.15;;;;;;;6.00;75.50;99139.57;2154799;81;21490;-78
2020/12/07 11:46:34;;;;;;;15.15;9.45;;;;;;;6.18;74.78;99127.08;2159671;80;21128;-76
2020/12/07 11:49:34;;;;;;;17.98;10.13;;;;;;;6.22;74.32;99138.95;2149751;80;21137;-80
2020/12/07 11:52:35;;;;;;;15.43;9.63;;;;;;;6.24;74.05;99129.05;2162625;81;21562;-79
2020/12/07 11:55:37;;;;;;;18.73;10.30;;;;;;;6.24;73.73;99119.02;2164184;80;21110;-76
2020/12/07 11:58:38;;;;;;;16.32;10.10;;;;;;;6.24;73.92;99120.33;2164870;80;21090;-76
2020/12/07 12:01:39;;;;;;;18.77;9.48;;;;;;;6.26;73.15;99115.23;2164836;80;21560;-77
2020/12/07 12:04:41;;;;;;;17.42;10.60;;;;;;;6.29;73.98;99102.23;2136612;80;21139;-79
2020/12/07 12:07:43;;;;;;;16.57;10.88;;;;;;;6.32;73.32;99116.89;2164165;80;21138;-79
2020/12/07 12:10:49;;;;;;;18.73;10.40;;;;;;;6.34;73.39;99099.12;2163393;80;21152;-76
2020/12/07 12:13:51;;;;;;;18.10;9.90;;;;;;;6.34;73.40;99092.53;2163616;80;21168;-77
2020/12/07 12:16:53;;;;;;;19.07;9.40;;;;;;;6.32;73.08;99091.86;2158993;81;21129;-77
2020/12/07 12:19:58;;;;;;;18.65;10.60;;;;;;;6.33;73.05;99097.45;2136820;81;21102;-77
2020/12/07 12:23:00;;;;;;;19.05;10.13;;;;;;;6.34;73.07;99083.31;2158924;80;21108;-79
2020/12/07 12:26:02;;;;;;;20.50;10.90;;;;;;;6.36;72.45;99079.99;2165390;80;21131;-79
2020/12/07 12:29:05;;;;;;;19.07;10.18;;;;;;;6.35;72.38;99080.49;2168049;80;21543;-77
2020/12/07 12:32:06;;;;;;;16.07;10.08;;;;;;;6.38;72.68;99080.66;2160661;80;21101;-77
2020/12/07 12:35:08;;;;;;;19.25;10.20;;;;;;;6.38;72.34;99085.93;2162831;80;22019;-75
2020/12/07 12:38:11;;;;;;;17.57;10.48;;;;;;;6.42;72.48;99085.91;2162677;79;21139;-76
2020/12/07 12:41:17;;;;;;;19.42;11.35;;;;;;;6.43;72.25;99082.31;2165764;80;21144;-77
2020/12/07 12:44:18;;;;;;;26.23;10.45;;;;;;;6.42;71.89;99060.88;2132986;80;21124;-76
2020/12/07 12:47:20;;;;;;;21.23;11.22;;;;;;;6.42;72.10;99074.91;2132389;80;21204;-79
2020/12/07 12:50:21;;;;;;;20.65;11.30;;;;;;;6.45;72.01;99082.98;2157376;80;21182;-77
2020/12/07 12:53:23;;;;;;;20.08;10.72;;;;;;;6.49;72.03;99091.69;2158445;80;21165;-77
2020/12/07 12:56:24;;;;;;;22.62;12.75;;;;;;;6.51;72.35;99103.39;2161476;80;21524;-76
2020/12/07 12:59:25;;;;;;;18.50;11.10;;;;;;;6.51;72.25;99112.62;2157047;80;21169;-80
2020/12/07 13:02:27;;;;;;;21.68;11.45;;;;;;;6.52;71.99;99116.89;2164643;80;21174;-78
2020/12/07 13:05:28;;;;;;;19.37;10.80;;;;;;;6.51;71.79;99118.70;2163187;80;21551;-77
2020/12/07 13:08:30;;;;;;;17.90;10.78;;;;;;;6.50;71.93;99119.70;2162655;80;21487;-77
2020/12/07 13:11:36;;;;;;;24.02;12.07;;;;;;;6.49;71.76;99131.22;2165027;80;21169;-77
2020/12/07 13:14:38;;;;;;;26.23;12.78;;;;;;;6.50;72.08;99135.98;2160720;80;21059;-78
2020/12/07 13:17:41;;;;;;;25.17;12.43;;;;;;;6.51;72.14;99146.38;2157084;80;21046;-79
2020/12/07 13:21:01;;;;;;;20.10;10.55;;;;;;;6.51;71.95;99151.65;2164841;80;21188;-77
2020/12/07 13:24:01;;;;;;;19.55;10.88;;;;;;;6.50;71.96;99147.84;2154143;80;21556;-78
2020/12/07 13:27:23;;;;;;;23.45;12.78;;;;;;;6.51;71.91;99156.92;2164451;81;21152;-77
2020/12/07 13:30:21;;;;;;;21.75;12.05;;;;;;;6.53;71.99;99156.74;2156839;80;21167;-78
2020/12/07 13:33:22;;;;;;;19.27;10.53;;;;;;;6.56;72.18;99159.55;2162993;80;21135;-80
2020/12/07 13:36:24;;;;;;;17.90;10.48;;;;;;;6.56;72.18;99161.71;2159509;80;21156;-79
2020/12/07 13:39:25;;;;;;;23.42;12.20;;;;;;;6.57;71.93;99167.30;2162359;80;21124;-78
2020/12/07 13:42:27;;;;;;;24.72;11.90;;;;;;;6.55;72.17;99178.99;2163210;80;21534;-77
2020/12/07 13:45:30;;;;;;;20.02;12.68;;;;;;;6.54;72.32;99177.36;2153187;80;21184;-78
2020/12/07 13:48:32;;;;;;;24.77;11.93;;;;;;;6.53;72.11;99185.73;2145766;81;21106;-79
2020/12/07 13:51:33;;;;;;;21.50;11.60;;;;;;;6.51;72.42;99187.23;2152427;81;21539;-78
2020/12/07 13:54:35;;;;;;;18.98;10.95;;;;;;;6.53;72.51;99199.41;2145772;81;21177;-78
2020/12/07 13:57:37;;;;;;;22.60;12.60;;;;;;;6.51;72.48;99198.27;2152020;81;21508;-78
2020/12/07 14:00:38;;;;;;;24.90;12.90;;;;;;;6.50;72.56;99196.13;2127074;82;21102;-78
2020/12/07 14:03:48;;;;;;;26.85;14.28;;;;;;;6.51;72.52;99199.59;2148304;81;21149;-78
2020/12/07 14:06:44;;;;;;;26.00;12.37;;;;;;;6.50;72.48;99209.78;2149704;81;21103;-78
2020/12/07 14:09:46;;;;;;;25.05;13.22;;;;;;;6.47;72.55;99212.74;2150308;81;21106;-79
2020/12/07 14:12:47;;;;;;;23.35;12.30;;;;;;;6.44;72.45;99213.89;2146777;81;21125;-78
2020/12/07 14:15:48;;;;;;;26.37;12.53;;;;;;;6.45;72.33;99221.33;2149614;81;21148;-78
2020/12/07 14:19:09;;;;;;;20.85;11.90;;;;;;;6.45;72.50;99232.69;2150811;81;21113;-79
2020/12/07 14:41:34;;;;;;;24.23;13.00;;;;;;;6.51;72.15;99220.67;2152755;81;21529;-80
2020/12/07 14:44:41;;;;;;;24.95;12.65;;;;;;;6.42;71.93;99212.40;2153069;81;21496;-80
2020/12/07 14:47:44;;;;;;;29.95;14.00;;;;;;;6.35;72.20;99216.19;2148945;80;21110;-81
2020/12/07 14:50:47;;;;;;;27.37;14.85;;;;;;;6.29;72.19;99218.97;2130008;81;21110;-78
2020/12/07 14:53:46;;;;;;;27.27;14.43;;;;;;;6.21;72.23;99217.63;2152663;81;21103;-78
2020/12/07 15:06:25;;;;;;;28.20;13.83;;;;;;;5.93;72.67;99223.63;2144744;81;21593;-79
2020/12/07 15:13:49;;;;;;;26.12;13.10;;;;;;;5.87;72.78;99228.68;2152442;81;21829;-79